Time;durP1;ratioP1;P1;durP2;ratioP2;P2;SDS_P1;SDS_P2;PMS_P1;PMS_P2;Temp;Humidity;BMP_temperature;BMP_pressure;BME280_temperature;BME280_humidity;BME280_pressure;Samples;Min_cycle;Max_cycle;Signal;HPM_P1;HPM_P2
2023/10/29 05:00:35;;;;;;;3.90;3.03;;;11.00;99.90;;;;;;5868021;23;20318;-76
2023/10/29 05:03:01;;;;;;;3.10;2.90;;;11.00;99.90;;;;;;4974017;28;20236;-75
2023/10/29 05:05:28;;;;;;;2.80;2.60;;;11.00;99.90;;;;;;4981351;28;20212;-76
2023/10/29 05:07:55;;;;;;;2.80;2.67;;;11.00;99.90;;;;;;4980051;28;20291;-76
2023/10/29 05:10:24;;;;;;;3.08;2.80;;;11.10;99.90;;;;;;4979899;28;20215;-76
2023/10/29 05:12:51;;;;;;;2.65;2.55;;;11.10;99.90;;;;;;4960332;28;20215;-76
2023/10/29 05:15:18;;;;;;;3.28;3.08;;;11.00;99.90;;;;;;4962285;28;20207;-76
2023/10/29 05:17:46;;;;;;;2.78;2.58;;;11.00;99.90;;;;;;4972408;23;20242;-73
2023/10/29 05:20:13;;;;;;;3.60;2.47;;;11.10;99.90;;;;;;4937057;29;20675;-72
2023/10/29 05:22:39;;;;;;;5.00;2.10;;;11.10;99.90;;;;;;4936706;29;20494;-72
2023/10/29 05:25:08;;;;;;;3.42;2.50;;;11.10;99.90;;;;;;4934927;29;20570;-72
2023/10/29 05:27:36;;;;;;;2.00;1.90;;;11.20;99.90;;;;;;4934480;29;20834;-71
2023/10/29 05:30:04;;;;;;;2.10;2.00;;;11.20;99.90;;;;;;4934931;29;20632;-72
2023/10/29 05:32:32;;;;;;;1.95;1.95;;;11.20;99.90;;;;;;4936048;29;20200;-74
2023/10/29 05:35:00;;;;;;;2.70;2.50;;;11.20;99.90;;;;;;4935513;29;20213;-74
2023/10/29 05:37:27;;;;;;;2.03;1.92;;;11.20;99.90;;;;;;4936715;29;20315;-71
2023/10/29 05:39:53;;;;;;;1.93;1.87;;;11.20;99.90;;;;;;4936763;29;20223;-72
2023/10/29 05:42:20;;;;;;;2.20;2.10;;;11.20;99.90;;;;;;4937160;29;20466;-73
2023/10/29 05:44:47;;;;;;;2.20;1.65;;;11.20;99.90;;;;;;4931842;29;20239;-72
2023/10/29 05:47:13;;;;;;;1.75;1.65;;;11.20;99.90;;;;;;4934245;29;20741;-72
2023/10/29 05:49:40;;;;;;;1.90;1.90;;;11.20;99.90;;;;;;4935117;29;20216;-72
2023/10/29 05:52:08;;;;;;;2.17;2.00;;;11.20;99.90;;;;;;4935515;29;20484;-72
2023/10/29 05:54:35;;;;;;;2.47;2.40;;;11.30;99.90;;;;;;4934216;29;20539;-73
2023/10/29 05:57:02;;;;;;;1.80;1.70;;;11.30;99.90;;;;;;4934010;29;20496;-73
2023/10/29 05:59:29;;;;;;;1.50;1.50;;;11.30;99.90;;;;;;4934936;29;20219;-72
2023/10/29 06:01:56;;;;;;;1.90;1.90;;;11.30;99.90;;;;;;4931137;29;20484;-73
2023/10/29 06:04:22;;;;;;;1.95;1.85;;;11.30;99.90;;;;;;4935191;29;20829;-72
2023/10/29 06:06:49;;;;;;;2.53;2.10;;;11.30;99.90;;;;;;4934377;29;20232;-72
2023/10/29 06:09:17;;;;;;;2.90;2.15;;;11.30;99.90;;;;;;4934763;29;20213;-72
2023/10/29 06:11:44;;;;;;;1.63;1.52;;;11.30;99.90;;;;;;4933039;29;20697;-72
2023/10/29 06:14:11;;;;;;;2.30;1.77;;;11.30;99.90;;;;;;4933980;29;20206;-72
2023/10/29 06:16:38;;;;;;;2.88;1.60;;;11.30;99.90;;;;;;4933285;29;20209;-72
2023/10/29 06:19:04;;;;;;;2.22;2.13;;;11.30;99.90;;;;;;4933937;29;20215;-72
2023/10/29 06:21:31;;;;;;;2.23;2.10;;;11.30;99.90;;;;;;4932671;29;20216;-72
2023/10/29 06:23:58;;;;;;;3.37;2.03;;;11.30;99.90;;;;;;4933227;29;20492;-72
2023/10/29 06:26:26;;;;;;;1.70;1.70;;;11.30;99.90;;;;;;4932401;29;20494;-72
2023/10/29 06:28:53;;;;;;;1.50;1.50;;;11.40;99.90;;;;;;4934276;29;20217;-72
2023/10/29 06:31:20;;;;;;;3.20;1.98;;;11.40;99.90;;;;;;4933101;29;20972;-71
2023/10/29 06:33:46;;;;;;;2.20;1.80;;;11.30;99.90;;;;;;4932844;29;20302;-72
2023/10/29 06:36:14;;;;;;;3.77;2.20;;;11.40;99.90;;;;;;4933899;29;20471;-71
2023/10/29 06:38:41;;;;;;;2.10;2.00;;;11.40;99.90;;;;;;4932596;29;20505;-71
2023/10/29 06:41:07;;;;;;;1.43;1.43;;;11.40;99.90;;;;;;4932955;29;20214;-70
2023/10/29 06:43:36;;;;;;;1.77;1.70;;;11.40;99.90;;;;;;4933922;29;21023;-71
2023/10/29 06:46:03;;;;;;;1.97;1.87;;;11.40;99.90;;;;;;4934114;29;20848;-71
2023/10/29 06:48:30;;;;;;;1.80;1.70;;;11.40;99.90;;;;;;4931142;29;20507;-72
2023/10/29 06:50:57;;;;;;;1.87;1.87;;;11.40;99.90;;;;;;4929551;29;20475;-71
2023/10/29 06:53:24;;;;;;;1.67;1.60;;;11.40;99.90;;;;;;4934365;29;20992;-72
2023/10/29 06:55:50;;;;;;;1.90;1.80;;;11.40;99.90;;;;;;4933860;29;20464;-71
2023/10/29 06:58:17;;;;;;;2.50;2.30;;;11.40;99.90;;;;;;4931411;29;20498;-72
2023/10/29 07:00:45;;;;;;;11.20;5.88;;;11.40;99.90;;;;;;4931066;29;20468;-72
2023/10/29 07:03:13;;;;;;;29.60;18.97;;;11.40;99.90;;;;;;4933136;29;20236;-71
2023/10/29 07:05:40;;;;;;;3.40;2.83;;;11.50;99.90;;;;;;4933125;29;21011;-72
2023/10/29 07:08:06;;;;;;;6.83;5.90;;;11.50;99.90;;;;;;4932897;29;20493;-72
2023/10/29 07:10:33;;;;;;;7.83;7.23;;;11.50;99.90;;;;;;4933116;29;20487;-72
2023/10/29 07:13:00;;;;;;;3.90;3.60;;;11.50;99.90;;;;;;4935937;29;20968;-73
2023/10/29 07:15:26;;;;;;;22.70;12.30;;;11.50;99.90;;;;;;4934474;29;20483;-71
2023/10/29 07:17:55;;;;;;;14.00;9.17;;;11.50;99.90;;;;;;4936100;28;20503;-72
2023/10/29 07:20:22;;;;;;;3.83;2.80;;;11.50;99.90;;;;;;4935440;29;20465;-72
2023/10/29 07:22:48;;;;;;;38.73;21.20;;;11.50;99.90;;;;;;4936161;29;20472;-71
2023/10/29 07:25:15;;;;;;;26.53;14.27;;;11.60;99.90;;;;;;4931205;29;20495;-73
2023/10/29 07:27:42;;;;;;;15.63;8.37;;;11.60;99.90;;;;;;4933580;29;20491;-72
2023/10/29 07:30:10;;;;;;;12.97;7.90;;;11.60;99.90;;;;;;4934459;29;20472;-72
2023/10/29 07:32:37;;;;;;;28.87;14.90;;;11.60;99.90;;;;;;4934759;29;20554;-72
2023/10/29 07:35:05;;;;;;;10.07;6.50;;;11.70;99.90;;;;;;4935483;29;21165;-72
2023/10/29 07:37:32;;;;;;;9.50;7.17;;;11.70;99.90;;;;;;4934770;29;20495;-71
2023/10/29 07:39:59;;;;;;;4.40;4.07;;;11.70;99.90;;;;;;4932376;29;20487;-71
2023/10/29 07:42:25;;;;;;;11.80;5.50;;;11.80;99.90;;;;;;4931303;29;21024;-71
2023/10/29 07:44:53;;;;;;;2.57;2.50;;;11.80;99.90;;;;;;4930731;29;20501;-71
2023/10/29 07:47:20;;;;;;;3.53;3.23;;;11.90;99.90;;;;;;4930388;29;20547;-71
2023/10/29 07:49:47;;;;;;;4.13;3.93;;;11.90;99.90;;;;;;4931907;29;20949;-72
2023/10/29 07:52:15;;;;;;;7.20;6.50;;;11.90;99.90;;;;;;4930510;29;20493;-72
2023/10/29 07:54:42;;;;;;;3.47;2.50;;;11.90;99.90;;;;;;4930948;29;20473;-72
2023/10/29 07:57:09;;;;;;;3.17;2.87;;;12.00;99.90;;;;;;4931758;29;20562;-70
2023/10/29 07:59:36;;;;;;;2.50;2.40;;;12.00;99.90;;;;;;4933063;29;20463;-71
2023/10/29 08:02:03;;;;;;;2.50;2.40;;;12.00;99.90;;;;;;4931456;29;20484;-71
2023/10/29 08:04:30;;;;;;;1.73;1.60;;;12.00;99.90;;;;;;4931867;29;20692;-72
2023/10/29 08:06:56;;;;;;;2.67;2.57;;;12.10;99.90;;;;;;4930996;29;20601;-71
2023/10/29 08:09:24;;;;;;;3.90;2.20;;;12.10;99.90;;;;;;4930745;29;20468;-72
2023/10/29 08:11:51;;;;;;;2.77;2.67;;;12.20;99.90;;;;;;4932532;29;20476;-72
2023/10/29 08:14:18;;;;;;;2.53;2.50;;;12.20;99.90;;;;;;4931504;29;20460;-71
2023/10/29 08:16:44;;;;;;;1.67;1.47;;;12.20;99.90;;;;;;4930663;29;20475;-71
2023/10/29 08:19:11;;;;;;;2.60;1.67;;;12.20;99.90;;;;;;4931926;29;20487;-72
2023/10/29 08:21:38;;;;;;;2.63;1.47;;;12.20;99.90;;;;;;4932235;29;20576;-71
2023/10/29 08:24:05;;;;;;;1.73;1.63;;;12.30;99.90;;;;;;4932629;29;20495;-72
2023/10/29 08:26:33;;;;;;;1.30;1.30;;;12.30;99.90;;;;;;4931620;29;20587;-72
2023/10/29 08:29:00;;;;;;;1.40;1.40;;;12.30;99.90;;;;;;4928524;29;20480;-72
2023/10/29 08:31:26;;;;;;;1.63;1.63;;;12.30;99.90;;;;;;4928915;29;20460;-72
2023/10/29 08:33:54;;;;;;;2.07;1.97;;;12.40;99.90;;;;;;4931974;29;20480;-72
2023/10/29 08:36:21;;;;;;;2.43;2.23;;;12.40;99.90;;;;;;4929103;29;20527;-72
2023/10/29 08:38:48;;;;;;;2.37;1.50;;;12.50;99.90;;;;;;4931856;29;20489;-71
2023/10/29 08:41:16;;;;;;;1.93;1.83;;;12.50;99.90;;;;;;4931937;29;20458;-72
2023/10/29 08:43:44;;;;;;;3.00;1.47;;;12.50;99.90;;;;;;4928755;29;20493;-72
2023/10/29 08:46:11;;;;;;;1.83;1.83;;;12.60;99.90;;;;;;4931271;29;20468;-72
2023/10/29 08:48:38;;;;;;;1.63;1.60;;;12.60;99.90;;;;;;4929916;29;20497;-71
2023/10/29 08:51:05;;;;;;;1.50;1.50;;;12.60;99.90;;;;;;4932234;29;20475;-72
2023/10/29 08:53:31;;;;;;;1.77;1.67;;;12.60;99.90;;;;;;4934812;29;20462;-71
2023/10/29 08:55:58;;;;;;;2.00;2.00;;;12.60;99.90;;;;;;4929776;29;20472;-71
2023/10/29 08:58:25;;;;;;;1.93;1.80;;;12.60;99.90;;;;;;4935270;29;20488;-72
2023/10/29 09:00:57;;;;;;;1.93;1.90;;;12.70;99.90;;;;;;4934726;29;20469;-71
2023/10/29 09:03:24;;;;;;;2.20;2.10;;;12.70;99.90;;;;;;4936145;29;20547;-72
2023/10/29 09:05:51;;;;;;;1.60;1.50;;;12.80;99.90;;;;;;4932757;29;20485;-73
2023/10/29 09:08:18;;;;;;;2.10;1.90;;;12.80;99.90;;;;;;4935980;29;20491;-71
2023/10/29 09:10:45;;;;;;;2.00;1.40;;;12.90;99.90;;;;;;4935287;29;20469;-71
2023/10/29 09:13:12;;;;;;;2.00;1.90;;;12.90;99.90;;;;;;4932253;29;20480;-73
2023/10/29 09:15:39;;;;;;;1.80;1.70;;;12.90;99.90;;;;;;4934964;29;20464;-72
2023/10/29 09:18:07;;;;;;;2.30;1.57;;;12.90;99.90;;;;;;4934465;29;20860;-71
2023/10/29 09:20:34;;;;;;;1.60;1.37;;;12.90;99.90;;;;;;4932571;29;20469;-72
2023/10/29 09:23:01;;;;;;;2.10;1.27;;;12.90;99.90;;;;;;4935708;29;20465;-71
2023/10/29 09:25:28;;;;;;;1.60;1.50;;;13.00;99.90;;;;;;4934891;29;21010;-72
2023/10/29 09:27:54;;;;;;;1.30;1.30;;;13.00;99.90;;;;;;4933788;29;20497;-72
2023/10/29 09:30:21;;;;;;;1.63;1.63;;;13.10;99.90;;;;;;4935067;29;20485;-71
2023/10/29 09:32:48;;;;;;;5.83;1.40;;;13.20;99.90;;;;;;4933697;29;20465;-71
2023/10/29 09:35:17;;;;;;;1.03;0.97;;;13.30;99.90;;;;;;4932568;29;20469;-72
2023/10/29 09:37:44;;;;;;;1.40;1.40;;;13.40;99.90;;;;;;4934152;29;20489;-72
2023/10/29 09:40:14;;;;;;;2.23;1.20;;;13.40;99.90;;;;;;4932368;29;20945;-72
2023/10/29 09:42:47;;;;;;;2.43;2.10;;;13.50;99.90;;;;;;4935214;29;20476;-72
2023/10/29 09:45:17;;;;;;;1.20;1.20;;;13.50;99.90;;;;;;4934894;29;20482;-72
2023/10/29 09:47:43;;;;;;;1.87;1.77;;;13.50;99.90;;;;;;4933572;29;20497;-71
2023/10/29 09:50:11;;;;;;;1.00;1.00;;;13.60;99.90;;;;;;4932393;29;20473;-72
2023/10/29 09:52:39;;;;;;;1.80;1.70;;;13.60;99.90;;;;;;4931660;29;20466;-71
2023/10/29 09:55:09;;;;;;;1.50;1.20;;;13.70;99.90;;;;;;4933841;29;20466;-72
2023/10/29 09:57:35;;;;;;;1.30;1.20;;;13.70;99.90;;;;;;4932572;29;20485;-72
2023/10/29 10:00:04;;;;;;;1.10;1.00;;;13.70;99.90;;;;;;4933173;29;20974;-72
2023/10/29 10:02:30;;;;;;;1.60;1.50;;;13.70;99.90;;;;;;4934853;29;20467;-71
2023/10/29 10:04:59;;;;;;;2.40;1.63;;;13.60;99.90;;;;;;4930627;29;21002;-71
2023/10/29 10:07:26;;;;;;;1.17;1.17;;;13.70;99.90;;;;;;4933151;29;20501;-71
2023/10/29 10:09:55;;;;;;;2.00;1.90;;;13.70;99.90;;;;;;4935070;29;20468;-71
2023/10/29 10:12:24;;;;;;;1.00;1.00;;;13.70;99.90;;;;;;4925591;29;20513;-71
2023/10/29 10:14:52;;;;;;;1.50;0.93;;;13.70;99.90;;;;;;4933225;29;20458;-71
2023/10/29 10:17:19;;;;;;;2.10;1.60;;;13.70;99.90;;;;;;4932589;29;21044;-71
2023/10/29 10:19:45;;;;;;;1.07;1.07;;;13.80;99.90;;;;;;4935110;29;20978;-71
2023/10/29 10:22:12;;;;;;;0.63;0.63;;;13.80;99.90;;;;;;4931354;29;20466;-72
2023/10/29 10:24:40;;;;;;;0.93;0.93;;;13.90;99.90;;;;;;4931935;29;20493;-73
2023/10/29 10:27:09;;;;;;;1.23;1.23;;;13.90;99.90;;;;;;4934254;29;20490;-73
2023/10/29 10:29:36;;;;;;;1.03;1.03;;;14.00;99.90;;;;;;4931842;29;20521;-72
2023/10/29 10:32:04;;;;;;;3.00;0.90;;;14.00;99.90;;;;;;4934605;29;20556;-72
2023/10/29 10:34:31;;;;;;;1.43;0.97;;;14.10;99.90;;;;;;4934369;29;20458;-72
2023/10/29 10:37:00;;;;;;;0.90;0.90;;;14.10;99.90;;;;;;4933416;29;20513;-71
2023/10/29 10:39:28;;;;;;;1.00;0.97;;;14.10;99.90;;;;;;4934505;29;20462;-72
2023/10/29 10:41:55;;;;;;;0.90;0.87;;;14.20;99.90;;;;;;4934185;29;20971;-72
2023/10/29 10:44:23;;;;;;;1.00;1.00;;;14.30;99.90;;;;;;4933895;29;20855;-71
2023/10/29 10:46:51;;;;;;;2.00;0.90;;;14.30;99.90;;;;;;4933842;29;20526;-72
2023/10/29 10:49:18;;;;;;;0.80;0.80;;;14.40;99.90;;;;;;4933864;29;20471;-72
2023/10/29 10:51:46;;;;;;;0.90;0.90;;;14.40;99.90;;;;;;4932904;29;20489;-72
2023/10/29 10:54:17;;;;;;;1.60;1.10;;;14.50;99.90;;;;;;4934479;29;20521;-72
2023/10/29 10:56:45;;;;;;;0.80;0.80;;;14.60;99.90;;;;;;4933629;29;20844;-72
2023/10/29 10:59:13;;;;;;;0.60;0.60;;;14.70;99.90;;;;;;4933571;29;20512;-72
2023/10/29 11:01:41;;;;;;;0.77;0.77;;;14.80;99.90;;;;;;4933795;29;20472;-71
2023/10/29 11:04:09;;;;;;;2.63;0.90;;;14.80;99.90;;;;;;4934069;29;20489;-71
2023/10/29 11:06:36;;;;;;;1.80;0.93;;;14.80;99.90;;;;;;4931115;29;20562;-72
2023/10/29 11:09:05;;;;;;;0.70;0.70;;;14.90;99.90;;;;;;4933939;29;20490;-72
2023/10/29 11:11:35;;;;;;;0.60;0.60;;;14.90;99.90;;;;;;4933385;29;20480;-72
2023/10/29 11:14:10;;;;;;;0.50;0.50;;;14.90;99.90;;;;;;4929037;29;20537;-71
2023/10/29 11:16:48;;;;;;;2.10;0.60;;;14.90;99.90;;;;;;4930859;29;20460;-72
2023/10/29 11:19:42;;;;;;;1.70;1.00;;;14.90;99.90;;;;;;4932289;29;20533;-71
2023/10/29 11:22:20;;;;;;;3.90;1.70;;;15.00;99.90;;;;;;4929291;29;21046;-72
2023/10/29 11:25:30;;;;;;;0.87;0.77;;;15.10;99.90;;;;;;4932267;29;20497;-72
2023/10/29 11:27:57;;;;;;;0.77;0.77;;;15.10;99.90;;;;;;4927552;29;20482;-72
2023/10/29 11:30:27;;;;;;;7.47;3.30;;;15.20;99.90;;;;;;4933354;29;20597;-72
2023/10/29 11:33:17;;;;;;;2.53;1.90;;;15.20;99.90;;;;;;4933401;29;21012;-72
2023/10/29 11:35:44;;;;;;;1.13;1.03;;;15.20;99.90;;;;;;4933637;29;20463;-72
2023/10/29 11:38:33;;;;;;;0.50;0.50;;;15.20;99.90;;;;;;4932825;29;20492;-72
2023/10/29 11:41:00;;;;;;;0.77;0.77;;;15.20;99.90;;;;;;4928236;29;20476;-72
2023/10/29 11:43:27;;;;;;;0.87;0.73;;;15.20;99.90;;;;;;4932372;29;20472;-72
2023/10/29 11:45:58;;;;;;;0.80;0.80;;;15.30;99.90;;;;;;4933078;29;20499;-72
2023/10/29 11:48:28;;;;;;;4.20;0.90;;;15.30;99.90;;;;;;4933177;29;20488;-72
2023/10/29 11:51:20;;;;;;;2.23;0.80;;;15.40;99.90;;;;;;4932904;29;20469;-72
2023/10/29 11:53:48;;;;;;;1.63;0.83;;;15.40;99.90;;;;;;4931879;29;20472;-71
2023/10/29 11:56:16;;;;;;;0.60;0.60;;;15.50;99.90;;;;;;4933054;29;20468;-72
2023/10/29 11:58:43;;;;;;;0.70;0.70;;;15.50;99.90;;;;;;4932750;29;21061;-71
2023/10/29 12:01:10;;;;;;;1.07;1.00;;;15.60;99.90;;;;;;4931883;29;20479;-71
2023/10/29 12:03:38;;;;;;;2.83;0.60;;;15.50;99.90;;;;;;4932952;29;20829;-73
2023/10/29 12:06:05;;;;;;;0.80;0.80;;;15.60;99.90;;;;;;4932847;29;20495;-72
2023/10/29 12:08:32;;;;;;;0.60;0.60;;;15.60;99.90;;;;;;4932630;29;20498;-72
2023/10/29 12:11:00;;;;;;;1.93;0.87;;;15.60;99.90;;;;;;4933308;29;20479;-72
2023/10/29 12:13:39;;;;;;;2.27;1.10;;;15.50;99.90;;;;;;4933020;29;20472;-73
2023/10/29 12:16:07;;;;;;;1.67;0.60;;;15.50;99.90;;;;;;4934346;29;20461;-72
2023/10/29 12:18:34;;;;;;;0.87;0.87;;;15.60;99.90;;;;;;4933846;29;20494;-72
2023/10/29 12:21:07;;;;;;;0.80;0.80;;;15.60;99.90;;;;;;4933702;29;20507;-72
2023/10/29 12:23:35;;;;;;;0.90;0.90;;;15.60;99.90;;;;;;4932986;29;20472;-72
2023/10/29 12:26:04;;;;;;;4.00;1.00;;;15.70;99.90;;;;;;4935379;29;20496;-72
2023/10/29 12:28:35;;;;;;;1.70;1.27;;;15.80;99.90;;;;;;4935970;29;20518;-72
2023/10/29 12:31:03;;;;;;;2.17;1.00;;;15.80;99.90;;;;;;4936580;29;20548;-73
2023/10/29 12:33:33;;;;;;;2.23;1.43;;;15.80;99.90;;;;;;4936716;29;20515;-72
2023/10/29 12:36:01;;;;;;;1.13;1.00;;;15.90;99.90;;;;;;4931158;29;20893;-73
2023/10/29 12:38:29;;;;;;;0.40;0.40;;;15.90;99.90;;;;;;4936563;29;20550;-73
2023/10/29 12:41:13;;;;;;;1.10;0.70;;;15.90;99.90;;;;;;4937029;29;20476;-73
2023/10/29 12:43:41;;;;;;;1.43;0.70;;;15.80;99.90;;;;;;4935529;29;20724;-73
2023/10/29 12:46:09;;;;;;;0.83;0.40;;;15.80;99.90;;;;;;4936113;29;20489;-73
2023/10/29 12:48:55;;;;;;;0.40;0.40;;;15.80;99.90;;;;;;4936263;29;20936;-74
2023/10/29 12:51:23;;;;;;;0.50;0.50;;;15.80;99.90;;;;;;4935453;29;20839;-72
2023/10/29 12:53:51;;;;;;;0.70;0.70;;;15.90;99.90;;;;;;4934481;29;20476;-75
2023/10/29 12:56:19;;;;;;;0.50;0.50;;;15.90;99.90;;;;;;4933292;29;20542;-74
2023/10/29 12:58:45;;;;;;;2.40;0.83;;;15.90;99.90;;;;;;4933365;29;20914;-75
2023/10/29 13:01:12;;;;;;;0.77;0.77;;;15.90;99.90;;;;;;4934422;29;20479;-74
2023/10/29 13:03:39;;;;;;;0.50;0.50;;;16.00;99.90;;;;;;4935248;29;20488;-74
2023/10/29 13:06:06;;;;;;;2.43;0.80;;;16.10;99.90;;;;;;4934341;29;20810;-73
2023/10/29 13:08:32;;;;;;;1.90;0.60;;;16.10;99.90;;;;;;4931309;29;20497;-74
2023/10/29 13:11:02;;;;;;;0.60;0.60;;;16.10;99.90;;;;;;4932072;29;20513;-74
2023/10/29 13:13:29;;;;;;;0.97;0.53;;;16.20;99.90;;;;;;4935804;29;20465;-74
2023/10/29 13:15:57;;;;;;;0.83;0.60;;;16.10;99.90;;;;;;4934157;29;20473;-74
2023/10/29 13:18:23;;;;;;;0.60;0.60;;;16.20;99.90;;;;;;4934609;29;20504;-73
2023/10/29 13:20:57;;;;;;;0.77;0.50;;;16.10;99.90;;;;;;4931579;29;20475;-72
2023/10/29 13:23:24;;;;;;;0.80;0.80;;;16.20;99.90;;;;;;4934612;29;20464;-71
2023/10/29 13:25:55;;;;;;;0.40;0.40;;;16.20;99.90;;;;;;4934977;29;20499;-72
2023/10/29 13:28:24;;;;;;;2.83;0.87;;;16.20;99.90;;;;;;4935668;29;20500;-72
2023/10/29 13:30:54;;;;;;;0.70;0.63;;;16.10;99.90;;;;;;4937891;29;20477;-72
2023/10/29 13:33:23;;;;;;;0.53;0.53;;;16.10;99.90;;;;;;4936172;29;20473;-72
2023/10/29 13:35:51;;;;;;;0.50;0.50;;;16.10;99.90;;;;;;4932947;29;20468;-72
2023/10/29 13:38:18;;;;;;;0.87;0.47;;;16.10;99.90;;;;;;4934294;29;20584;-73
2023/10/29 13:40:44;;;;;;;0.60;0.60;;;16.10;99.90;;;;;;4934576;29;20483;-72
2023/10/29 13:43:12;;;;;;;4.17;0.77;;;16.10;99.90;;;;;;4935369;29;20473;-72
2023/10/29 13:45:40;;;;;;;0.83;0.53;;;16.10;99.90;;;;;;4935069;29;20516;-73
2023/10/29 13:48:07;;;;;;;0.63;0.63;;;16.10;99.90;;;;;;4936934;29;20597;-73
2023/10/29 13:50:38;;;;;;;0.70;0.70;;;16.10;99.90;;;;;;4948203;29;20469;-71
2023/10/29 13:53:05;;;;;;;0.40;0.40;;;16.00;99.90;;;;;;4953972;29;20468;-71
2023/10/29 13:55:32;;;;;;;0.97;0.87;;;16.00;99.90;;;;;;4949626;29;21002;-72
2023/10/29 13:58:01;;;;;;;0.50;0.50;;;16.00;99.90;;;;;;4941933;29;20497;-73
2023/10/29 14:00:27;;;;;;;0.63;0.63;;;16.00;99.90;;;;;;4934996;29;20472;-72
2023/10/29 14:02:56;;;;;;;0.60;0.60;;;15.90;99.90;;;;;;4936056;29;20481;-72
2023/10/29 14:05:22;;;;;;;1.07;0.50;;;15.90;99.90;;;;;;4938316;29;20847;-73
2023/10/29 14:07:49;;;;;;;0.30;0.30;;;15.90;99.90;;;;;;4932237;29;20584;-73
2023/10/29 14:10:16;;;;;;;0.53;0.53;;;15.80;99.90;;;;;;4936651;29;20543;-72
2023/10/29 14:12:45;;;;;;;1.13;0.87;;;15.80;99.90;;;;;;4934490;29;20869;-72
2023/10/29 14:15:12;;;;;;;1.80;0.40;;;15.80;99.90;;;;;;4929801;29;20460;-73
2023/10/29 14:17:38;;;;;;;0.43;0.43;;;15.80;99.90;;;;;;4932185;29;20876;-74
2023/10/29 14:20:08;;;;;;;3.40;0.57;;;15.80;99.90;;;;;;4931052;29;20489;-73
2023/10/29 14:22:35;;;;;;;1.07;0.60;;;15.80;99.90;;;;;;4933845;29;20969;-74
2023/10/29 14:25:04;;;;;;;0.40;0.40;;;15.70;99.90;;;;;;4934442;29;20622;-72
2023/10/29 14:27:30;;;;;;;0.40;0.40;;;15.70;99.90;;;;;;4933146;29;20485;-72
2023/10/29 14:29:57;;;;;;;0.63;0.63;;;15.60;99.90;;;;;;4933599;29;20483;-72
2023/10/29 14:32:24;;;;;;;1.60;0.67;;;15.60;99.90;;;;;;4933103;29;20842;-72
2023/10/29 14:34:51;;;;;;;1.03;0.77;;;15.60;99.90;;;;;;4927761;29;20475;-72
2023/10/29 14:37:20;;;;;;;1.03;1.03;;;15.60;99.90;;;;;;4933731;29;20484;-71
2023/10/29 14:39:48;;;;;;;0.93;0.53;;;15.50;99.90;;;;;;4933514;29;20467;-72
2023/10/29 14:42:14;;;;;;;0.57;0.57;;;15.50;99.90;;;;;;4934048;29;20472;-72
2023/10/29 14:44:41;;;;;;;1.90;0.43;;;15.50;99.90;;;;;;4929998;29;20515;-72
2023/10/29 14:47:08;;;;;;;0.50;0.50;;;15.50;99.90;;;;;;4931754;29;20996;-72
2023/10/29 14:49:35;;;;;;;0.93;0.93;;;15.50;99.90;;;;;;4931085;29;20473;-72
2023/10/29 14:52:01;;;;;;;1.40;0.83;;;15.40;99.90;;;;;;4932309;29;20858;-71
2023/10/29 14:54:29;;;;;;;0.53;0.50;;;15.40;99.90;;;;;;4927690;29;20474;-72
2023/10/29 14:56:56;;;;;;;0.60;0.60;;;15.30;99.90;;;;;;4933370;29;20501;-72
2023/10/29 14:59:23;;;;;;;1.20;0.63;;;15.30;99.90;;;;;;4929757;29;20470;-72
2023/10/29 15:01:50;;;;;;;2.20;0.80;;;15.30;99.90;;;;;;4933322;29;20467;-71
2023/10/29 15:04:16;;;;;;;0.90;0.90;;;15.20;99.90;;;;;;4931266;29;20475;-72
2023/10/29 15:06:44;;;;;;;2.23;0.50;;;15.20;99.90;;;;;;4931934;29;20850;-71
2023/10/29 15:09:11;;;;;;;0.57;0.40;;;15.10;99.90;;;;;;4933101;29;20470;-72
2023/10/29 15:11:39;;;;;;;0.63;0.60;;;15.10;99.90;;;;;;4931293;29;20566;-72
2023/10/29 15:14:06;;;;;;;0.67;0.67;;;15.00;99.90;;;;;;4932588;29;20480;-72
2023/10/29 15:16:32;;;;;;;0.60;0.60;;;15.00;99.90;;;;;;4929229;29;20471;-72
2023/10/29 15:18:59;;;;;;;0.70;0.70;;;14.90;99.90;;;;;;4932594;29;20465;-72
2023/10/29 15:21:26;;;;;;;0.90;0.70;;;14.90;99.90;;;;;;4932305;29;20489;-72
2023/10/29 15:23:53;;;;;;;0.77;0.77;;;14.80;99.90;;;;;;4933278;29;20928;-72
2023/10/29 15:26:21;;;;;;;0.70;0.70;;;14.80;99.90;;;;;;4929291;29;20483;-72
2023/10/29 15:28:49;;;;;;;0.70;0.70;;;14.70;99.90;;;;;;4931480;29;20505;-72
2023/10/29 15:31:16;;;;;;;0.77;0.73;;;14.60;99.90;;;;;;4933307;29;20555;-72
2023/10/29 15:33:43;;;;;;;0.60;0.60;;;14.60;99.90;;;;;;4932446;29;20482;-72
2023/10/29 15:36:11;;;;;;;0.90;0.90;;;14.60;99.90;;;;;;4931042;29;20470;-72
2023/10/29 15:38:38;;;;;;;1.60;0.80;;;14.50;99.90;;;;;;4932159;29;20492;-72
2023/10/29 15:41:06;;;;;;;0.60;0.60;;;14.40;99.90;;;;;;4931462;29;20474;-72
2023/10/29 15:43:34;;;;;;;1.83;1.27;;;14.40;99.90;;;;;;4928195;29;20482;-72
2023/10/29 15:46:04;;;;;;;1.07;1.07;;;14.30;99.90;;;;;;4932863;29;20486;-72
2023/10/29 15:48:32;;;;;;;0.60;0.60;;;14.30;99.90;;;;;;4932373;29;20568;-72
2023/10/29 15:51:00;;;;;;;0.80;0.80;;;14.20;99.90;;;;;;4930223;29;20486;-72
2023/10/29 15:53:26;;;;;;;1.03;1.03;;;14.10;99.90;;;;;;4930413;29;20481;-72
2023/10/29 15:55:53;;;;;;;1.30;1.30;;;14.10;99.90;;;;;;4933146;29;20468;-72
2023/10/29 15:58:20;;;;;;;0.60;0.60;;;14.00;99.90;;;;;;4932965;29;20497;-73
2023/10/29 16:00:48;;;;;;;2.43;0.80;;;14.00;99.90;;;;;;4939746;29;20457;-72
2023/10/29 16:03:17;;;;;;;0.83;0.83;;;13.90;99.90;;;;;;4938916;29;20536;-73
2023/10/29 16:05:43;;;;;;;0.70;0.70;;;13.90;99.90;;;;;;4937769;29;20917;-73
2023/10/29 16:08:10;;;;;;;0.87;0.80;;;13.90;99.90;;;;;;4935876;29;20486;-73
2023/10/29 16:10:37;;;;;;;1.23;1.23;;;13.80;99.90;;;;;;4936676;29;20651;-73
2023/10/29 16:13:03;;;;;;;0.60;0.60;;;13.80;99.90;;;;;;4939501;29;20480;-73
2023/10/29 16:15:30;;;;;;;1.27;1.20;;;13.80;99.90;;;;;;4937888;29;20473;-73
2023/10/29 16:17:57;;;;;;;1.10;1.10;;;13.80;99.90;;;;;;4938903;29;20608;-72
2023/10/29 16:20:25;;;;;;;0.90;0.90;;;13.80;99.90;;;;;;4937572;29;20488;-72
2023/10/29 16:22:52;;;;;;;1.37;1.30;;;13.80;99.90;;;;;;4939148;29;20484;-73
2023/10/29 16:25:18;;;;;;;1.20;1.20;;;13.80;99.90;;;;;;4940088;29;20462;-73
2023/10/29 16:27:45;;;;;;;2.53;2.43;;;13.80;99.90;;;;;;4938800;29;20524;-72
2023/10/29 16:30:13;;;;;;;1.53;1.27;;;13.80;99.90;;;;;;4939186;29;20469;-72
2023/10/29 16:32:40;;;;;;;1.70;0.90;;;13.80;99.90;;;;;;4933261;29;20977;-72
2023/10/29 16:35:08;;;;;;;1.63;1.53;;;13.80;99.90;;;;;;4932006;29;20493;-72
2023/10/29 16:37:36;;;;;;;1.57;1.50;;;13.80;99.90;;;;;;4938440;29;20514;-73
2023/10/29 16:40:04;;;;;;;4.83;1.90;;;13.80;99.90;;;;;;4937568;29;20976;-73
2023/10/29 16:42:31;;;;;;;1.60;1.60;;;13.80;99.90;;;;;;4937813;29;20844;-73
2023/10/29 16:44:57;;;;;;;1.40;1.40;;;13.80;99.90;;;;;;4936441;29;20484;-73
2023/10/29 16:47:24;;;;;;;4.10;1.60;;;13.80;99.90;;;;;;4935772;29;20508;-73
2023/10/29 16:49:51;;;;;;;1.33;1.30;;;13.70;99.90;;;;;;4935425;29;21017;-73
2023/10/29 16:52:18;;;;;;;1.43;1.43;;;13.70;99.90;;;;;;4938799;29;20493;-72
2023/10/29 16:54:46;;;;;;;1.30;1.20;;;13.70;99.90;;;;;;4937477;29;20476;-72
2023/10/29 16:57:13;;;;;;;1.83;1.70;;;13.70;99.90;;;;;;4931933;29;21182;-71
2023/10/29 16:59:40;;;;;;;2.73;1.77;;;13.70;99.90;;;;;;4936304;29;20473;-71
2023/10/29 17:02:07;;;;;;;1.57;1.57;;;13.70;99.90;;;;;;4936731;29;20492;-71
2023/10/29 17:04:33;;;;;;;1.93;1.87;;;13.70;99.90;;;;;;4937025;29;20470;-71
2023/10/29 17:07:00;;;;;;;1.30;1.30;;;13.70;99.90;;;;;;4932059;29;20497;-72
2023/10/29 17:09:28;;;;;;;1.40;1.40;;;13.70;99.90;;;;;;4934529;29;20599;-74
2023/10/29 17:11:56;;;;;;;1.80;1.70;;;13.70;99.90;;;;;;4939670;29;20473;-72
2023/10/29 17:14:23;;;;;;;1.30;1.30;;;13.70;99.90;;;;;;4938074;29;20462;-73
2023/10/29 17:16:50;;;;;;;1.30;1.30;;;13.80;99.90;;;;;;4931611;29;20492;-72
2023/10/29 17:19:17;;;;;;;1.00;1.00;;;13.80;99.90;;;;;;4931052;29;20903;-73
2023/10/29 17:21:43;;;;;;;1.67;1.57;;;13.80;99.90;;;;;;4935472;29;20986;-73
2023/10/29 17:24:10;;;;;;;1.90;1.30;;;13.80;99.90;;;;;;4934659;29;20474;-72
2023/10/29 17:26:37;;;;;;;1.40;1.30;;;13.80;99.90;;;;;;4934100;29;20489;-76
2023/10/29 17:29:05;;;;;;;1.30;1.23;;;13.80;99.90;;;;;;4931969;29;20477;-77
2023/10/29 17:31:32;;;;;;;1.87;1.77;;;13.80;99.90;;;;;;4935239;29;20465;-75
2023/10/29 17:33:59;;;;;;;1.10;1.10;;;13.80;99.90;;;;;;4937012;29;20466;-74
2023/10/29 17:36:26;;;;;;;1.03;1.03;;;13.80;99.90;;;;;;4937176;29;20469;-76
2023/10/29 17:38:52;;;;;;;1.40;1.23;;;13.80;99.90;;;;;;4929831;29;20490;-75
2023/10/29 17:41:21;;;;;;;1.20;1.10;;;13.80;99.90;;;;;;4934482;29;20544;-75
2023/10/29 17:43:49;;;;;;;1.30;1.30;;;13.80;99.90;;;;;;4935026;29;20994;-76
2023/10/29 17:46:19;;;;;;;1.23;1.23;;;13.80;99.90;;;;;;4935580;29;20474;-76
2023/10/29 17:48:47;;;;;;;1.13;1.13;;;13.90;99.90;;;;;;4930509;29;20481;-74